sensor_id;sensor_type;location;lat;lon;timestamp;temperature;humidity
8593;DHT22;4334;49.982;8.398;2024-03-06T00:01:44;4.20;99.90
8593;DHT22;4334;49.982;8.398;2024-03-06T00:04:11;4.00;99.90
8593;DHT22;4334;49.982;8.398;2024-03-06T00:06:37;3.90;99.90
8593;DHT22;4334;49.982;8.398;2024-03-06T00:09:04;3.80;99.90
8593;DHT22;4334;49.982;8.398;2024-03-06T00:11:33;3.90;99.90
8593;DHT22;4334;49.982;8.398;2024-03-06T00:14:02;3.90;99.90
8593;DHT22;4334;49.982;8.398;2024-03-06T00:16:30;3.80;99.90
8593;DHT22;4334;49.982;8.398;2024-03-06T00:18:57;3.80;99.90
8593;DHT22;4334;49.982;8.398;2024-03-06T00:21:24;3.70;99.90
8593;DHT22;4334;49.982;8.398;2024-03-06T00:23:50;3.70;99.90
8593;DHT22;4334;49.982;8.398;2024-03-06T00:26:17;3.90;99.90
8593;DHT22;4334;49.982;8.398;2024-03-06T00:28:44;3.80;99.90
8593;DHT22;4334;49.982;8.398;2024-03-06T00:31:12;3.80;99.90
8593;DHT22;4334;49.982;8.398;2024-03-06T00:33:40;3.60;99.90
8593;DHT22;4334;49.982;8.398;2024-03-06T00:36:07;3.60;99.90
8593;DHT22;4334;49.982;8.398;2024-03-06T00:38:33;3.50;99.90
8593;DHT22;4334;49.982;8.398;2024-03-06T00:41:00;3.40;99.90
8593;DHT22;4334;49.982;8.398;2024-03-06T00:43:27;3.50;99.90
8593;DHT22;4334;49.982;8.398;2024-03-06T00:45:53;3.50;99.90
8593;DHT22;4334;49.982;8.398;2024-03-06T00:48:21;3.50;99.90
8593;DHT22;4334;49.982;8.398;2024-03-06T00:50:48;3.50;99.90
8593;DHT22;4334;49.982;8.398;2024-03-06T00:53:14;3.50;99.90
8593;DHT22;4334;49.982;8.398;2024-03-06T00:55:41;3.40;99.90
8593;DHT22;4334;49.982;8.398;2024-03-06T00:58:10;3.30;99.90
8593;DHT22;4334;49.982;8.398;2024-03-06T01:00:37;3.30;99.90
8593;DHT22;4334;49.982;8.398;2024-03-06T01:03:04;3.30;99.90
8593;DHT22;4334;49.982;8.398;2024-03-06T01:05:33;3.30;99.90
8593;DHT22;4334;49.982;8.398;2024-03-06T01:08:00;3.30;99.90
8593;DHT22;4334;49.982;8.398;2024-03-06T01:10:26;3.40;99.90
8593;DHT22;4334;49.982;8.398;2024-03-06T01:12:53;3.40;99.90
8593;DHT22;4334;49.982;8.398;2024-03-06T01:15:20;3.40;99.90
8593;DHT22;4334;49.982;8.398;2024-03-06T01:17:46;3.30;99.90
8593;DHT22;4334;49.982;8.398;2024-03-06T01:20:13;3.20;99.90
8593;DHT22;4334;49.982;8.398;2024-03-06T01:22:41;3.20;99.90
8593;DHT22;4334;49.982;8.398;2024-03-06T01:25:08;3.10;99.90
8593;DHT22;4334;49.982;8.398;2024-03-06T01:27:35;3.20;99.90
8593;DHT22;4334;49.982;8.398;2024-03-06T01:30:01;3.30;99.90
8593;DHT22;4334;49.982;8.398;2024-03-06T01:32:29;3.30;99.90
8593;DHT22;4334;49.982;8.398;2024-03-06T01:34:56;3.30;99.90
8593;DHT22;4334;49.982;8.398;2024-03-06T01:37:23;3.20;99.90
8593;DHT22;4334;49.982;8.398;2024-03-06T01:39:51;4.70;99.90
8593;DHT22;4334;49.982;8.398;2024-03-06T01:42:18;3.10;99.90
8593;DHT22;4334;49.982;8.398;2024-03-06T01:44:44;4.50;99.90
8593;DHT22;4334;49.982;8.398;2024-03-06T01:47:11;3.50;99.90
8593;DHT22;4334;49.982;8.398;2024-03-06T01:49:38;6.10;99.90
8593;DHT22;4334;49.982;8.398;2024-03-06T01:52:04;3.20;99.90
8593;DHT22;4334;49.982;8.398;2024-03-06T01:54:31;3.20;99.90
8593;DHT22;4334;49.982;8.398;2024-03-06T01:57:01;3.30;99.90
8593;DHT22;4334;49.982;8.398;2024-03-06T01:59:28;3.30;99.90
8593;DHT22;4334;49.982;8.398;2024-03-06T02:01:55;3.30;99.90
8593;DHT22;4334;49.982;8.398;2024-03-06T02:04:24;3.40;99.90
8593;DHT22;4334;49.982;8.398;2024-03-06T02:06:51;6.10;99.90
8593;DHT22;4334;49.982;8.398;2024-03-06T02:09:17;4.90;99.90
8593;DHT22;4334;49.982;8.398;2024-03-06T02:11:45;7.80;99.90
8593;DHT22;4334;49.982;8.398;2024-03-06T02:14:13;3.20;99.90
8593;DHT22;4334;49.982;8.398;2024-03-06T02:16:41;3.00;99.90
8593;DHT22;4334;49.982;8.398;2024-03-06T02:19:08;5.80;99.90
8593;DHT22;4334;49.982;8.398;2024-03-06T02:21:36;3.10;99.90
8593;DHT22;4334;49.982;8.398;2024-03-06T02:24:03;7.70;99.90
8593;DHT22;4334;49.982;8.398;2024-03-06T02:26:30;3.30;99.90
8593;DHT22;4334;49.982;8.398;2024-03-06T02:28:57;3.30;99.90
8593;DHT22;4334;49.982;8.398;2024-03-06T02:31:24;3.20;99.90
8593;DHT22;4334;49.982;8.398;2024-03-06T02:33:51;3.10;99.90
8593;DHT22;4334;49.982;8.398;2024-03-06T02:36:18;3.20;99.90
8593;DHT22;4334;49.982;8.398;2024-03-06T02:38:46;3.30;99.90
8593;DHT22;4334;49.982;8.398;2024-03-06T02:41:13;3.40;99.90
8593;DHT22;4334;49.982;8.398;2024-03-06T02:43:41;3.30;99.90
8593;DHT22;4334;49.982;8.398;2024-03-06T02:46:08;3.20;99.90
8593;DHT22;4334;49.982;8.398;2024-03-06T02:48:35;3.10;99.90
8593;DHT22;4334;49.982;8.398;2024-03-06T02:51:02;2.90;99.90
8593;DHT22;4334;49.982;8.398;2024-03-06T02:53:28;2.80;99.90
8593;DHT22;4334;49.982;8.398;2024-03-06T02:55:56;2.80;99.90
8593;DHT22;4334;49.982;8.398;2024-03-06T02:58:23;3.00;99.90
8593;DHT22;4334;49.982;8.398;2024-03-06T03:00:50;3.00;99.90
8593;DHT22;4334;49.982;8.398;2024-03-06T03:03:16;2.90;99.90
8593;DHT22;4334;49.982;8.398;2024-03-06T03:05:44;2.90;99.90
8593;DHT22;4334;49.982;8.398;2024-03-06T03:08:10;2.90;99.90
8593;DHT22;4334;49.982;8.398;2024-03-06T03:10:37;2.80;99.90
8593;DHT22;4334;49.982;8.398;2024-03-06T03:13:05;2.70;99.90
8593;DHT22;4334;49.982;8.398;2024-03-06T03:15:32;2.80;99.90
8593;DHT22;4334;49.982;8.398;2024-03-06T03:17:59;2.70;99.90
8593;DHT22;4334;49.982;8.398;2024-03-06T03:20:25;3.00;99.90
8593;DHT22;4334;49.982;8.398;2024-03-06T03:22:52;3.20;99.90
8593;DHT22;4334;49.982;8.398;2024-03-06T03:25:19;3.10;99.90
8593;DHT22;4334;49.982;8.398;2024-03-06T03:27:47;3.10;99.90
8593;DHT22;4334;49.982;8.398;2024-03-06T03:30:15;3.10;99.90
8593;DHT22;4334;49.982;8.398;2024-03-06T03:32:42;3.20;99.90
8593;DHT22;4334;49.982;8.398;2024-03-06T03:35:08;3.30;99.90
8593;DHT22;4334;49.982;8.398;2024-03-06T03:37:35;3.50;99.90
8593;DHT22;4334;49.982;8.398;2024-03-06T03:40:03;3.60;99.90
8593;DHT22;4334;49.982;8.398;2024-03-06T03:42:29;3.60;99.90
8593;DHT22;4334;49.982;8.398;2024-03-06T03:44:56;3.50;99.90
8593;DHT22;4334;49.982;8.398;2024-03-06T03:47:24;3.60;99.90
8593;DHT22;4334;49.982;8.398;2024-03-06T03:49:51;3.50;99.90
8593;DHT22;4334;49.982;8.398;2024-03-06T03:52:17;3.50;99.90
8593;DHT22;4334;49.982;8.398;2024-03-06T03:54:44;0.80;99.90
8593;DHT22;4334;49.982;8.398;2024-03-06T03:57:11;3.40;99.90
8593;DHT22;4334;49.982;8.398;2024-03-06T03:59:39;3.50;99.90
8593;DHT22;4334;49.982;8.398;2024-03-06T04:02:06;3.60;99.90
8593;DHT22;4334;49.982;8.398;2024-03-06T04:04:35;3.50;99.90
8593;DHT22;4334;49.982;8.398;2024-03-06T04:07:02;3.50;99.90
8593;DHT22;4334;49.982;8.398;2024-03-06T04:09:29;3.50;99.90
8593;DHT22;4334;49.982;8.398;2024-03-06T04:11:55;3.50;99.90
8593;DHT22;4334;49.982;8.398;2024-03-06T04:14:22;3.40;99.90
8593;DHT22;4334;49.982;8.398;2024-03-06T04:16:50;3.50;99.90
8593;DHT22;4334;49.982;8.398;2024-03-06T04:19:16;3.40;99.90
8593;DHT22;4334;49.982;8.398;2024-03-06T04:21:45;3.30;99.90
8593;DHT22;4334;49.982;8.398;2024-03-06T04:24:12;3.30;99.90
8593;DHT22;4334;49.982;8.398;2024-03-06T04:26:38;3.40;99.90
8593;DHT22;4334;49.982;8.398;2024-03-06T04:29:05;3.50;99.90
8593;DHT22;4334;49.982;8.398;2024-03-06T04:31:33;3.90;99.90
8593;DHT22;4334;49.982;8.398;2024-03-06T04:34:01;3.40;99.90
8593;DHT22;4334;49.982;8.398;2024-03-06T04:36:28;3.30;99.90
8593;DHT22;4334;49.982;8.398;2024-03-06T04:38:56;3.30;99.90
8593;DHT22;4334;49.982;8.398;2024-03-06T04:41:22;3.30;99.90
8593;DHT22;4334;49.982;8.398;2024-03-06T04:43:49;3.20;99.90
8593;DHT22;4334;49.982;8.398;2024-03-06T04:46:17;3.20;99.90
8593;DHT22;4334;49.982;8.398;2024-03-06T04:48:44;5.50;99.90
8593;DHT22;4334;49.982;8.398;2024-03-06T04:51:12;3.30;99.90
8593;DHT22;4334;49.982;8.398;2024-03-06T04:53:39;3.20;99.90
8593;DHT22;4334;49.982;8.398;2024-03-06T04:56:09;3.20;99.90
8593;DHT22;4334;49.982;8.398;2024-03-06T04:58:35;3.20;99.90
8593;DHT22;4334;49.982;8.398;2024-03-06T05:01:02;3.10;99.90
8593;DHT22;4334;49.982;8.398;2024-03-06T05:03:29;3.00;99.90
8593;DHT22;4334;49.982;8.398;2024-03-06T05:05:56;3.00;99.90
8593;DHT22;4334;49.982;8.398;2024-03-06T05:08:22;3.00;99.90
8593;DHT22;4334;49.982;8.398;2024-03-06T05:10:49;2.90;99.90
8593;DHT22;4334;49.982;8.398;2024-03-06T05:13:17;3.00;99.90
8593;DHT22;4334;49.982;8.398;2024-03-06T05:15:44;3.00;99.90
8593;DHT22;4334;49.982;8.398;2024-03-06T05:18:11;3.00;99.90
8593;DHT22;4334;49.982;8.398;2024-03-06T05:20:37;3.00;99.90
8593;DHT22;4334;49.982;8.398;2024-03-06T05:23:04;3.10;99.90
8593;DHT22;4334;49.982;8.398;2024-03-06T05:25:31;3.20;99.90
8593;DHT22;4334;49.982;8.398;2024-03-06T05:27:58;3.20;99.90
8593;DHT22;4334;49.982;8.398;2024-03-06T05:30:26;3.20;99.90
8593;DHT22;4334;49.982;8.398;2024-03-06T05:32:54;3.20;99.90
8593;DHT22;4334;49.982;8.398;2024-03-06T05:35:20;3.10;99.90
8593;DHT22;4334;49.982;8.398;2024-03-06T05:37:47;3.10;99.90
8593;DHT22;4334;49.982;8.398;2024-03-06T05:40:14;3.10;99.90
8593;DHT22;4334;49.982;8.398;2024-03-06T05:42:40;3.00;99.90
8593;DHT22;4334;49.982;8.398;2024-03-06T05:45:08;2.90;99.90
8593;DHT22;4334;49.982;8.398;2024-03-06T05:47:38;2.90;99.90
8593;DHT22;4334;49.982;8.398;2024-03-06T05:50:05;2.90;99.90
8593;DHT22;4334;49.982;8.398;2024-03-06T05:52:32;2.90;99.90
8593;DHT22;4334;49.982;8.398;2024-03-06T05:55:00;3.00;99.90
8593;DHT22;4334;49.982;8.398;2024-03-06T05:57:26;3.10;99.90
8593;DHT22;4334;49.982;8.398;2024-03-06T05:59:53;3.10;99.90
8593;DHT22;4334;49.982;8.398;2024-03-06T06:02:20;3.20;99.90
8593;DHT22;4334;49.982;8.398;2024-03-06T06:04:49;3.30;99.90
8593;DHT22;4334;49.982;8.398;2024-03-06T06:07:16;3.20;99.90
8593;DHT22;4334;49.982;8.398;2024-03-06T06:09:43;3.20;99.90
8593;DHT22;4334;49.982;8.398;2024-03-06T06:12:10;3.20;99.90
8593;DHT22;4334;49.982;8.398;2024-03-06T06:14:37;3.30;99.90
8593;DHT22;4334;49.982;8.398;2024-03-06T06:17:04;3.30;99.90
8593;DHT22;4334;49.982;8.398;2024-03-06T06:19:30;3.20;99.90
8593;DHT22;4334;49.982;8.398;2024-03-06T06:21:58;3.30;99.90
8593;DHT22;4334;49.982;8.398;2024-03-06T06:24:26;3.30;99.90
8593;DHT22;4334;49.982;8.398;2024-03-06T06:26:52;3.30;99.90
8593;DHT22;4334;49.982;8.398;2024-03-06T06:29:19;3.30;99.90
8593;DHT22;4334;49.982;8.398;2024-03-06T06:31:46;3.40;99.90
8593;DHT22;4334;49.982;8.398;2024-03-06T06:34:13;3.40;99.90
8593;DHT22;4334;49.982;8.398;2024-03-06T06:36:45;3.40;99.90
8593;DHT22;4334;49.982;8.398;2024-03-06T06:39:13;3.60;99.90
8593;DHT22;4334;49.982;8.398;2024-03-06T06:41:42;3.60;99.90
8593;DHT22;4334;49.982;8.398;2024-03-06T06:44:09;3.70;99.90
8593;DHT22;4334;49.982;8.398;2024-03-06T06:46:35;3.80;99.90
8593;DHT22;4334;49.982;8.398;2024-03-06T06:49:02;3.80;99.90
8593;DHT22;4334;49.982;8.398;2024-03-06T06:51:29;3.80;99.90
8593;DHT22;4334;49.982;8.398;2024-03-06T06:53:55;3.90;99.90
8593;DHT22;4334;49.982;8.398;2024-03-06T06:56:23;3.90;99.90
8593;DHT22;4334;49.982;8.398;2024-03-06T06:58:50;3.90;99.90
8593;DHT22;4334;49.982;8.398;2024-03-06T07:01:17;4.00;99.90
8593;DHT22;4334;49.982;8.398;2024-03-06T07:03:45;4.00;99.90
8593;DHT22;4334;49.982;8.398;2024-03-06T07:06:12;4.10;99.90
8593;DHT22;4334;49.982;8.398;2024-03-06T07:08:38;4.10;99.90
8593;DHT22;4334;49.982;8.398;2024-03-06T07:11:05;4.20;99.90
8593;DHT22;4334;49.982;8.398;2024-03-06T07:13:33;4.20;99.90
8593;DHT22;4334;49.982;8.398;2024-03-06T07:16:02;4.20;99.90
8593;DHT22;4334;49.982;8.398;2024-03-06T07:18:28;4.20;99.90
8593;DHT22;4334;49.982;8.398;2024-03-06T07:20:55;4.30;99.90
8593;DHT22;4334;49.982;8.398;2024-03-06T07:23:22;4.50;99.90
8593;DHT22;4334;49.982;8.398;2024-03-06T07:25:49;4.60;99.90
8593;DHT22;4334;49.982;8.398;2024-03-06T07:28:16;4.60;99.90
8593;DHT22;4334;49.982;8.398;2024-03-06T07:30:44;4.70;99.90
8593;DHT22;4334;49.982;8.398;2024-03-06T07:33:11;4.80;99.90
8593;DHT22;4334;49.982;8.398;2024-03-06T07:35:39;6.80;99.90
8593;DHT22;4334;49.982;8.398;2024-03-06T07:38:06;5.10;99.90
8593;DHT22;4334;49.982;8.398;2024-03-06T07:40:32;5.30;99.90
8593;DHT22;4334;49.982;8.398;2024-03-06T07:42:59;5.50;99.90
8593;DHT22;4334;49.982;8.398;2024-03-06T07:45:26;5.60;99.90
8593;DHT22;4334;49.982;8.398;2024-03-06T07:47:53;5.60;99.90
8593;DHT22;4334;49.982;8.398;2024-03-06T07:50:20;5.70;99.90
8593;DHT22;4334;49.982;8.398;2024-03-06T07:52:47;5.80;99.90
8593;DHT22;4334;49.982;8.398;2024-03-06T07:55:14;5.90;99.90
8593;DHT22;4334;49.982;8.398;2024-03-06T07:57:41;5.90;99.90
8593;DHT22;4334;49.982;8.398;2024-03-06T08:00:08;6.00;99.90
8593;DHT22;4334;49.982;8.398;2024-03-06T08:02:40;6.10;99.90
8593;DHT22;4334;49.982;8.398;2024-03-06T08:05:10;6.20;99.90
8593;DHT22;4334;49.982;8.398;2024-03-06T08:07:37;6.90;99.90
8593;DHT22;4334;49.982;8.398;2024-03-06T08:10:08;6.70;99.90
8593;DHT22;4334;49.982;8.398;2024-03-06T08:12:35;6.80;99.90
8593;DHT22;4334;49.982;8.398;2024-03-06T08:15:01;6.90;99.90
8593;DHT22;4334;49.982;8.398;2024-03-06T08:17:28;6.90;99.90
8593;DHT22;4334;49.982;8.398;2024-03-06T08:19:55;7.10;99.90
8593;DHT22;4334;49.982;8.398;2024-03-06T08:22:23;7.30;99.90
8593;DHT22;4334;49.982;8.398;2024-03-06T08:24:50;7.30;99.90
8593;DHT22;4334;49.982;8.398;2024-03-06T08:27:16;7.50;99.90
8593;DHT22;4334;49.982;8.398;2024-03-06T08:29:44;7.70;99.90
8593;DHT22;4334;49.982;8.398;2024-03-06T08:32:11;7.80;99.90
8593;DHT22;4334;49.982;8.398;2024-03-06T08:34:37;8.40;99.90
8593;DHT22;4334;49.982;8.398;2024-03-06T08:37:04;8.80;99.90
8593;DHT22;4334;49.982;8.398;2024-03-06T08:39:33;8.90;99.90
8593;DHT22;4334;49.982;8.398;2024-03-06T08:41:59;9.10;99.90
8593;DHT22;4334;49.982;8.398;2024-03-06T08:44:28;9.40;99.90
8593;DHT22;4334;49.982;8.398;2024-03-06T08:46:54;9.50;99.90
8593;DHT22;4334;49.982;8.398;2024-03-06T08:49:21;9.50;99.90
8593;DHT22;4334;49.982;8.398;2024-03-06T08:51:48;9.60;99.90
8593;DHT22;4334;49.982;8.398;2024-03-06T08:54:14;9.80;99.90
8593;DHT22;4334;49.982;8.398;2024-03-06T08:56:44;9.90;99.90
8593;DHT22;4334;49.982;8.398;2024-03-06T08:59:11;10.20;99.90
8593;DHT22;4334;49.982;8.398;2024-03-06T09:01:37;10.40;99.90
8593;DHT22;4334;49.982;8.398;2024-03-06T09:04:04;10.40;99.90
8593;DHT22;4334;49.982;8.398;2024-03-06T09:06:32;10.40;99.90
8593;DHT22;4334;49.982;8.398;2024-03-06T09:08:59;10.20;99.90
8593;DHT22;4334;49.982;8.398;2024-03-06T09:11:26;10.20;99.90
8593;DHT22;4334;49.982;8.398;2024-03-06T09:13:54;10.30;99.90
8593;DHT22;4334;49.982;8.398;2024-03-06T09:16:20;10.20;99.90
8593;DHT22;4334;49.982;8.398;2024-03-06T09:18:47;10.40;99.90
8593;DHT22;4334;49.982;8.398;2024-03-06T09:21:13;10.70;99.90
8593;DHT22;4334;49.982;8.398;2024-03-06T09:23:40;10.80;99.90
8593;DHT22;4334;49.982;8.398;2024-03-06T09:26:07;10.80;99.90
8593;DHT22;4334;49.982;8.398;2024-03-06T09:28:34;11.00;99.90
8593;DHT22;4334;49.982;8.398;2024-03-06T09:31:02;11.00;99.90
8593;DHT22;4334;49.982;8.398;2024-03-06T09:33:28;10.90;99.90
8593;DHT22;4334;49.982;8.398;2024-03-06T09:35:55;11.20;99.90
8593;DHT22;4334;49.982;8.398;2024-03-06T09:38:22;11.10;99.90
8593;DHT22;4334;49.982;8.398;2024-03-06T09:40:49;11.10;99.90
8593;DHT22;4334;49.982;8.398;2024-03-06T09:43:16;10.80;99.90
8593;DHT22;4334;49.982;8.398;2024-03-06T09:45:44;10.90;99.90
8593;DHT22;4334;49.982;8.398;2024-03-06T09:48:16;11.20;99.90
8593;DHT22;4334;49.982;8.398;2024-03-06T09:50:46;11.00;99.90
8593;DHT22;4334;49.982;8.398;2024-03-06T09:53:16;11.00;99.90
8593;DHT22;4334;49.982;8.398;2024-03-06T09:55:44;11.40;99.90
8593;DHT22;4334;49.982;8.398;2024-03-06T09:58:13;11.70;99.90
8593;DHT22;4334;49.982;8.398;2024-03-06T10:00:40;11.90;99.90
8593;DHT22;4334;49.982;8.398;2024-03-06T10:03:06;12.50;99.90
8593;DHT22;4334;49.982;8.398;2024-03-06T10:05:35;13.40;99.90
8593;DHT22;4334;49.982;8.398;2024-03-06T10:08:03;14.10;99.90
8593;DHT22;4334;49.982;8.398;2024-03-06T10:10:30;14.20;99.90
8593;DHT22;4334;49.982;8.398;2024-03-06T10:12:57;13.50;99.90
8593;DHT22;4334;49.982;8.398;2024-03-06T10:15:25;13.50;99.90
8593;DHT22;4334;49.982;8.398;2024-03-06T10:18:10;13.10;99.90
8593;DHT22;4334;49.982;8.398;2024-03-06T10:20:39;13.20;99.90
8593;DHT22;4334;49.982;8.398;2024-03-06T10:23:09;13.20;99.90
8593;DHT22;4334;49.982;8.398;2024-03-06T10:25:36;13.70;99.90
8593;DHT22;4334;49.982;8.398;2024-03-06T10:28:04;14.00;99.90
8593;DHT22;4334;49.982;8.398;2024-03-06T10:30:32;13.80;99.90
8593;DHT22;4334;49.982;8.398;2024-03-06T10:33:01;14.10;99.90
8593;DHT22;4334;49.982;8.398;2024-03-06T10:35:28;13.40;99.90
8593;DHT22;4334;49.982;8.398;2024-03-06T10:37:56;13.40;99.90
8593;DHT22;4334;49.982;8.398;2024-03-06T10:40:27;13.70;99.90
8593;DHT22;4334;49.982;8.398;2024-03-06T10:42:55;13.60;99.90
8593;DHT22;4334;49.982;8.398;2024-03-06T10:45:31;13.60;99.90
8593;DHT22;4334;49.982;8.398;2024-03-06T10:48:01;13.90;99.90
8593;DHT22;4334;49.982;8.398;2024-03-06T10:50:28;13.90;99.90
8593;DHT22;4334;49.982;8.398;2024-03-06T10:52:57;13.90;99.90
8593;DHT22;4334;49.982;8.398;2024-03-06T10:55:26;13.90;99.90
8593;DHT22;4334;49.982;8.398;2024-03-06T10:57:55;14.40;99.90
8593;DHT22;4334;49.982;8.398;2024-03-06T11:00:23;14.30;99.90
8593;DHT22;4334;49.982;8.398;2024-03-06T11:02:53;14.20;99.90
8593;DHT22;4334;49.982;8.398;2024-03-06T11:05:20;13.80;99.90
8593;DHT22;4334;49.982;8.398;2024-03-06T11:07:47;13.50;99.90
8593;DHT22;4334;49.982;8.398;2024-03-06T11:10:30;13.60;99.90
8593;DHT22;4334;49.982;8.398;2024-03-06T11:12:56;15.40;99.90
8593;DHT22;4334;49.982;8.398;2024-03-06T11:15:24;15.60;99.90
8593;DHT22;4334;49.982;8.398;2024-03-06T11:17:51;14.60;99.90
8593;DHT22;4334;49.982;8.398;2024-03-06T11:20:21;14.10;99.90
8593;DHT22;4334;49.982;8.398;2024-03-06T11:23:07;14.40;99.90
8593;DHT22;4334;49.982;8.398;2024-03-06T11:28:40;16.50;99.90
8593;DHT22;4334;49.982;8.398;2024-03-06T11:31:16;15.70;99.90
8593;DHT22;4334;49.982;8.398;2024-03-06T11:33:45;15.20;99.90
8593;DHT22;4334;49.982;8.398;2024-03-06T11:36:20;16.60;99.90
8593;DHT22;4334;49.982;8.398;2024-03-06T11:38:48;17.80;99.90
8593;DHT22;4334;49.982;8.398;2024-03-06T11:41:14;18.40;99.90
8593;DHT22;4334;49.982;8.398;2024-03-06T11:43:44;17.50;99.90
8593;DHT22;4334;49.982;8.398;2024-03-06T11:46:12;16.90;99.90
8593;DHT22;4334;49.982;8.398;2024-03-06T11:48:38;15.60;99.90
8593;DHT22;4334;49.982;8.398;2024-03-06T11:51:05;15.10;99.90
8593;DHT22;4334;49.982;8.398;2024-03-06T11:53:33;14.70;99.90
8593;DHT22;4334;49.982;8.398;2024-03-06T11:56:00;13.70;99.90
8593;DHT22;4334;49.982;8.398;2024-03-06T11:58:26;13.70;99.90
8593;DHT22;4334;49.982;8.398;2024-03-06T12:00:54;13.60;99.90
8593;DHT22;4334;49.982;8.398;2024-03-06T12:03:22;13.70;99.90
8593;DHT22;4334;49.982;8.398;2024-03-06T12:05:50;13.80;99.90
8593;DHT22;4334;49.982;8.398;2024-03-06T12:08:18;13.70;99.90
8593;DHT22;4334;49.982;8.398;2024-03-06T12:10:46;11.80;99.90
8593;DHT22;4334;49.982;8.398;2024-03-06T12:13:13;14.00;99.90
8593;DHT22;4334;49.982;8.398;2024-03-06T12:15:42;13.90;99.90
8593;DHT22;4334;49.982;8.398;2024-03-06T12:18:10;14.50;99.90
8593;DHT22;4334;49.982;8.398;2024-03-06T12:20:41;15.90;99.90
8593;DHT22;4334;49.982;8.398;2024-03-06T12:23:19;16.40;99.90
8593;DHT22;4334;49.982;8.398;2024-03-06T12:25:46;16.40;99.90
8593;DHT22;4334;49.982;8.398;2024-03-06T12:28:13;15.20;99.90
8593;DHT22;4334;49.982;8.398;2024-03-06T12:30:41;14.70;99.90
8593;DHT22;4334;49.982;8.398;2024-03-06T12:33:11;14.70;99.90
8593;DHT22;4334;49.982;8.398;2024-03-06T12:35:42;14.70;99.90
8593;DHT22;4334;49.982;8.398;2024-03-06T12:38:13;16.30;99.90
8593;DHT22;4334;49.982;8.398;2024-03-06T12:40:40;14.20;99.90
8593;DHT22;4334;49.982;8.398;2024-03-06T12:43:07;14.50;99.90
8593;DHT22;4334;49.982;8.398;2024-03-06T12:45:35;14.00;99.90
8593;DHT22;4334;49.982;8.398;2024-03-06T12:48:03;13.60;99.90
8593;DHT22;4334;49.982;8.398;2024-03-06T12:50:31;13.30;99.90
8593;DHT22;4334;49.982;8.398;2024-03-06T12:52:58;13.80;99.90
8593;DHT22;4334;49.982;8.398;2024-03-06T12:55:25;18.20;99.90
8593;DHT22;4334;49.982;8.398;2024-03-06T12:57:51;14.00;99.90
8593;DHT22;4334;49.982;8.398;2024-03-06T13:00:19;14.00;99.90
8593;DHT22;4334;49.982;8.398;2024-03-06T13:02:46;14.00;99.90
8593;DHT22;4334;49.982;8.398;2024-03-06T13:05:12;13.90;99.90
8593;DHT22;4334;49.982;8.398;2024-03-06T13:07:42;14.10;99.90
8593;DHT22;4334;49.982;8.398;2024-03-06T13:10:09;14.00;99.90
8593;DHT22;4334;49.982;8.398;2024-03-06T13:12:36;14.20;99.90
8593;DHT22;4334;49.982;8.398;2024-03-06T13:15:04;14.30;99.90
8593;DHT22;4334;49.982;8.398;2024-03-06T13:17:32;14.20;99.90
8593;DHT22;4334;49.982;8.398;2024-03-06T13:19:59;14.20;99.90
8593;DHT22;4334;49.982;8.398;2024-03-06T13:22:26;14.20;99.90
8593;DHT22;4334;49.982;8.398;2024-03-06T13:24:54;13.80;99.90
8593;DHT22;4334;49.982;8.398;2024-03-06T13:27:22;13.10;99.90
8593;DHT22;4334;49.982;8.398;2024-03-06T13:29:49;12.80;99.90
8593;DHT22;4334;49.982;8.398;2024-03-06T13:32:16;13.00;99.90
8593;DHT22;4334;49.982;8.398;2024-03-06T13:34:43;13.10;99.90
8593;DHT22;4334;49.982;8.398;2024-03-06T13:37:10;13.30;99.90
8593;DHT22;4334;49.982;8.398;2024-03-06T13:39:37;13.40;99.90
8593;DHT22;4334;49.982;8.398;2024-03-06T13:42:06;13.20;99.90
8593;DHT22;4334;49.982;8.398;2024-03-06T13:44:33;13.00;99.90
8593;DHT22;4334;49.982;8.398;2024-03-06T13:47:00;13.00;99.90
8593;DHT22;4334;49.982;8.398;2024-03-06T13:49:38;12.80;99.90
8593;DHT22;4334;49.982;8.398;2024-03-06T13:52:07;12.80;99.90
8593;DHT22;4334;49.982;8.398;2024-03-06T13:54:35;12.70;99.90
8593;DHT22;4334;49.982;8.398;2024-03-06T13:57:04;12.60;99.90
8593;DHT22;4334;49.982;8.398;2024-03-06T13:59:32;12.50;99.90
8593;DHT22;4334;49.982;8.398;2024-03-06T14:01:59;12.50;99.90
8593;DHT22;4334;49.982;8.398;2024-03-06T14:04:26;12.50;99.90
8593;DHT22;4334;49.982;8.398;2024-03-06T14:06:53;12.30;99.90
8593;DHT22;4334;49.982;8.398;2024-03-06T14:09:20;12.30;99.90
8593;DHT22;4334;49.982;8.398;2024-03-06T14:11:49;12.30;99.90
8593;DHT22;4334;49.982;8.398;2024-03-06T14:14:17;12.20;99.90
8593;DHT22;4334;49.982;8.398;2024-03-06T14:16:44;12.10;99.90
8593;DHT22;4334;49.982;8.398;2024-03-06T14:19:11;12.10;99.90
8593;DHT22;4334;49.982;8.398;2024-03-06T14:21:38;12.10;99.90
8593;DHT22;4334;49.982;8.398;2024-03-06T14:24:05;12.10;99.90
8593;DHT22;4334;49.982;8.398;2024-03-06T14:26:32;12.10;99.90
8593;DHT22;4334;49.982;8.398;2024-03-06T14:28:59;12.00;99.90
8593;DHT22;4334;49.982;8.398;2024-03-06T14:31:28;11.90;99.90
8593;DHT22;4334;49.982;8.398;2024-03-06T14:33:55;11.90;99.90
8593;DHT22;4334;49.982;8.398;2024-03-06T14:36:22;11.90;99.90
8593;DHT22;4334;49.982;8.398;2024-03-06T14:38:50;11.90;99.90
8593;DHT22;4334;49.982;8.398;2024-03-06T14:41:17;14.80;99.90
8593;DHT22;4334;49.982;8.398;2024-03-06T14:43:44;11.90;99.90
8593;DHT22;4334;49.982;8.398;2024-03-06T14:46:11;12.00;99.90
8593;DHT22;4334;49.982;8.398;2024-03-06T14:48:39;12.50;99.90
8593;DHT22;4334;49.982;8.398;2024-03-06T14:51:07;13.10;99.90
8593;DHT22;4334;49.982;8.398;2024-03-06T14:53:34;13.90;99.90
8593;DHT22;4334;49.982;8.398;2024-03-06T14:56:00;14.40;99.90
8593;DHT22;4334;49.982;8.398;2024-03-06T14:58:27;14.50;99.90
8593;DHT22;4334;49.982;8.398;2024-03-06T15:00:54;14.40;99.90
8593;DHT22;4334;49.982;8.398;2024-03-06T15:03:20;16.20;99.90
8593;DHT22;4334;49.982;8.398;2024-03-06T15:05:48;13.70;99.90
8593;DHT22;4334;49.982;8.398;2024-03-06T15:08:16;13.20;99.90
8593;DHT22;4334;49.982;8.398;2024-03-06T15:10:42;12.70;99.90
8593;DHT22;4334;49.982;8.398;2024-03-06T15:13:09;12.30;99.90
8593;DHT22;4334;49.982;8.398;2024-03-06T15:15:38;12.20;99.90
8593;DHT22;4334;49.982;8.398;2024-03-06T15:18:06;12.30;99.90
8593;DHT22;4334;49.982;8.398;2024-03-06T15:20:33;12.20;99.90
8593;DHT22;4334;49.982;8.398;2024-03-06T15:23:01;12.10;99.90
8593;DHT22;4334;49.982;8.398;2024-03-06T15:25:29;15.20;99.90
8593;DHT22;4334;49.982;8.398;2024-03-06T15:27:56;12.10;99.90
8593;DHT22;4334;49.982;8.398;2024-03-06T15:30:23;11.10;99.90
8593;DHT22;4334;49.982;8.398;2024-03-06T15:32:50;12.00;99.90
8593;DHT22;4334;49.982;8.398;2024-03-06T15:35:17;12.00;99.90
8593;DHT22;4334;49.982;8.398;2024-03-06T15:37:44;11.90;99.90
8593;DHT22;4334;49.982;8.398;2024-03-06T15:40:12;11.80;99.90
8593;DHT22;4334;49.982;8.398;2024-03-06T15:42:38;11.60;99.90
8593;DHT22;4334;49.982;8.398;2024-03-06T15:45:06;11.50;99.90
8593;DHT22;4334;49.982;8.398;2024-03-06T15:47:32;11.60;99.90
8593;DHT22;4334;49.982;8.398;2024-03-06T15:50:03;11.40;99.90
8593;DHT22;4334;49.982;8.398;2024-03-06T15:52:30;11.40;99.90
8593;DHT22;4334;49.982;8.398;2024-03-06T15:54:56;11.40;99.90
8593;DHT22;4334;49.982;8.398;2024-03-06T15:57:24;11.40;99.90
8593;DHT22;4334;49.982;8.398;2024-03-06T15:59:51;11.40;99.90
8593;DHT22;4334;49.982;8.398;2024-03-06T16:02:18;11.30;99.90
8593;DHT22;4334;49.982;8.398;2024-03-06T16:04:44;11.30;99.90
8593;DHT22;4334;49.982;8.398;2024-03-06T16:07:11;11.30;99.90
8593;DHT22;4334;49.982;8.398;2024-03-06T16:09:39;11.20;99.90
8593;DHT22;4334;49.982;8.398;2024-03-06T16:12:06;11.20;99.90
8593;DHT22;4334;49.982;8.398;2024-03-06T16:14:34;11.20;99.90